createdAt,value
2022-10-15T00:01:50.949Z,85.38
2022-10-15T00:04:18.041Z,85.24
2022-10-15T00:06:45.113Z,85.52
2022-10-15T00:09:12.165Z,85.49
2022-10-15T00:11:40.413Z,85.42
2022-10-15T00:14:07.693Z,85.35
2022-10-15T00:16:35.346Z,85.32
2022-10-15T00:19:04.655Z,85.79
2022-10-15T00:21:32.231Z,85.73
2022-10-15T00:23:59.310Z,85.51
2022-10-15T00:26:26.782Z,85.64
2022-10-15T00:31:45.451Z,85.65
2022-10-15T00:34:12.798Z,85.81
2022-10-15T00:36:39.885Z,85.95
2022-10-15T00:39:07.076Z,85.93
2022-10-15T00:41:35.340Z,85.65
2022-10-15T00:44:22.460Z,85.55
2022-10-15T00:46:50.172Z,85.63
2022-10-15T00:49:23.767Z,85.86
2022-10-15T00:51:56.123Z,85.94
2022-10-15T00:54:23.399Z,86.72
2022-10-15T00:56:50.541Z,86.51
2022-10-15T00:59:18.407Z,86.44
2022-10-15T01:01:45.536Z,86.45
2022-10-15T01:04:12.854Z,86.17
2022-10-15T01:06:39.921Z,86.15
2022-10-15T01:09:06.973Z,86.39
2022-10-15T01:11:37.065Z,86.14
2022-10-15T01:14:07.182Z,86.23
2022-10-15T01:16:49.414Z,86.44
2022-10-15T01:19:28.576Z,86.86
2022-10-15T01:21:56.708Z,86.70
2022-10-15T01:24:24.004Z,86.55
2022-10-15T01:27:06.016Z,86.56
2022-10-15T01:29:51.610Z,86.32
2022-10-15T01:32:21.945Z,86.42
2022-10-15T01:34:49.527Z,86.55
2022-10-15T01:37:28.925Z,86.81
2022-10-15T01:40:19.097Z,86.70
2022-10-15T01:42:58.895Z,86.54
2022-10-15T01:45:28.392Z,86.59
2022-10-15T01:47:56.681Z,86.81
2022-10-15T01:50:24.586Z,87.08
2022-10-15T01:52:51.928Z,87.47
2022-10-15T01:55:19.463Z,87.58
2022-10-15T01:57:46.477Z,87.71
2022-10-15T02:00:13.707Z,87.81
2022-10-15T02:02:41.286Z,88.12
2022-10-15T02:05:10.295Z,87.54
2022-10-15T02:07:55.302Z,87.07
2022-10-15T02:10:24.929Z,87.19
2022-10-15T02:12:56.527Z,87.69
2022-10-15T02:15:27.725Z,87.86
2022-10-15T02:18:16.493Z,87.96
2022-10-15T02:21:00.035Z,88.53
2022-10-15T02:23:38.242Z,88.44
2022-10-15T02:26:06.590Z,88.71
2022-10-15T02:28:34.262Z,88.41
2022-10-15T02:31:01.517Z,88.41
2022-10-15T02:33:28.768Z,88.36
2022-10-15T02:35:56.188Z,88.13
2022-10-15T02:38:23.504Z,87.09
2022-10-15T02:40:50.846Z,88.00
2022-10-15T02:43:18.880Z,88.17
2022-10-15T02:45:46.165Z,87.67
2022-10-15T02:48:13.266Z,87.86
2022-10-15T02:50:40.298Z,87.61
2022-10-15T02:53:08.014Z,87.49
2022-10-15T02:55:35.111Z,88.18
2022-10-15T02:58:02.342Z,88.04
2022-10-15T03:00:29.630Z,88.21
2022-10-15T03:02:56.716Z,88.45
2022-10-15T03:05:23.945Z,88.16
2022-10-15T03:07:51.603Z,88.21
2022-10-15T03:10:23.172Z,87.91
2022-10-15T03:12:50.205Z,88.83
2022-10-15T03:15:17.347Z,88.58
2022-10-15T03:17:44.397Z,88.34
2022-10-15T03:20:13.834Z,88.95
2022-10-15T03:22:41.412Z,88.80
2022-10-15T03:25:08.584Z,88.90
2022-10-15T03:27:37.308Z,88.96
2022-10-15T03:30:04.705Z,88.81
2022-10-15T03:32:33.121Z,88.86
2022-10-15T03:35:03.333Z,88.71
2022-10-15T03:37:30.530Z,88.22
2022-10-15T03:39:57.558Z,88.63
2022-10-15T03:42:25.651Z,88.08
2022-10-15T03:44:53.088Z,88.01
2022-10-15T03:47:20.096Z,88.03
2022-10-15T03:49:47.109Z,88.47
2022-10-15T03:52:14.155Z,88.44
2022-10-15T03:54:41.202Z,88.16
2022-10-15T03:57:08.252Z,88.48
2022-10-15T03:59:35.319Z,88.85
2022-10-15T04:02:02.396Z,88.56
2022-10-15T04:04:29.662Z,88.51
2022-10-15T04:06:56.755Z,89.02
2022-10-15T04:09:23.829Z,88.95
2022-10-15T04:11:52.629Z,89.05
2022-10-15T04:14:23.532Z,88.78
2022-10-15T04:16:50.733Z,88.89
2022-10-15T04:19:18.065Z,88.75
2022-10-15T04:21:45.915Z,88.89
2022-10-15T04:24:13.305Z,89.07
2022-10-15T04:26:41.554Z,89.18
2022-10-15T04:29:10.700Z,89.55
2022-10-15T04:31:39.240Z,88.98
2022-10-15T04:34:06.360Z,89.02
2022-10-15T04:36:33.737Z,88.74
2022-10-15T04:39:01.240Z,89.02
2022-10-15T04:41:28.349Z,88.80
2022-10-15T04:43:55.748Z,88.96
2022-10-15T04:46:22.909Z,88.99
2022-10-15T04:48:50.074Z,89.27
2022-10-15T04:51:17.776Z,88.99
2022-10-15T04:53:44.970Z,88.72
2022-10-15T04:56:17.812Z,88.65
2022-10-15T04:58:45.781Z,88.71
2022-10-15T05:01:14.065Z,88.49
2022-10-15T05:03:45.036Z,88.87
2022-10-15T05:06:21.791Z,88.71
2022-10-15T05:08:51.193Z,88.84
2022-10-15T05:11:19.390Z,88.44
2022-10-15T05:13:46.482Z,88.84
2022-10-15T05:16:13.505Z,88.17
2022-10-15T05:18:40.735Z,88.44
2022-10-15T05:21:08.465Z,88.84
2022-10-15T05:23:36.788Z,88.80
2022-10-15T05:26:05.553Z,88.57
2022-10-15T05:28:32.631Z,88.00
2022-10-15T05:31:06.606Z,87.89
2022-10-15T05:33:34.334Z,88.27
2022-10-15T05:36:08.366Z,88.12
2022-10-15T05:38:35.377Z,87.98
2022-10-15T05:41:02.412Z,87.31
2022-10-15T05:43:29.553Z,87.12
2022-10-15T05:45:56.716Z,85.88
2022-10-15T05:48:24.229Z,84.31
2022-10-15T05:50:51.513Z,84.26
2022-10-15T05:53:18.865Z,83.18
2022-10-15T05:55:46.106Z,82.86
2022-10-15T05:58:13.151Z,81.82
2022-10-15T06:00:40.583Z,80.87
2022-10-15T06:03:10.854Z,81.18
2022-10-15T06:05:38.000Z,80.00
2022-10-15T06:08:05.452Z,79.54
2022-10-15T06:10:35.279Z,77.50
2022-10-15T06:13:02.767Z,78.25
2022-10-15T06:15:29.837Z,76.67
2022-10-15T06:17:56.864Z,76.63
2022-10-15T06:20:25.820Z,74.75
2022-10-15T06:22:56.418Z,74.53
2022-10-15T06:25:23.563Z,75.93
2022-10-15T06:27:50.936Z,76.08
2022-10-15T06:30:18.053Z,73.97
2022-10-15T06:32:52.402Z,72.57
2022-10-15T06:35:19.796Z,71.79
2022-10-15T06:37:46.922Z,68.66
2022-10-15T06:40:14.063Z,66.68
2022-10-15T06:42:41.150Z,66.98
2022-10-15T06:45:10.179Z,64.89
2022-10-15T06:47:41.974Z,65.45
2022-10-15T06:50:09.373Z,65.88
2022-10-15T06:52:36.398Z,62.63
2022-10-15T06:55:03.940Z,58.73
2022-10-15T06:57:31.309Z,48.00
2022-10-15T06:59:58.454Z,37.36
2022-10-15T07:02:25.830Z,33.37
2022-10-15T07:04:53.321Z,32.20
2022-10-15T07:07:22.116Z,32.34
2022-10-15T07:09:53.466Z,30.70
2022-10-15T07:12:22.478Z,31.55
2022-10-15T07:14:49.945Z,30.44
2022-10-15T07:17:17.807Z,29.74
2022-10-15T07:19:44.967Z,30.15
2022-10-15T07:22:12.109Z,29.09
2022-10-15T07:24:39.337Z,28.86
2022-10-15T07:27:18.214Z,29.48
2022-10-15T07:29:46.000Z,29.55
2022-10-15T07:32:13.349Z,29.46
2022-10-15T07:34:41.890Z,30.29
2022-10-15T07:37:09.118Z,32.22
2022-10-15T07:39:39.121Z,33.75
2022-10-15T07:42:08.905Z,34.35
2022-10-15T07:44:35.964Z,32.20
2022-10-15T07:47:03.044Z,30.61
2022-10-15T07:49:30.275Z,29.86
2022-10-15T07:51:57.323Z,28.51
2022-10-15T07:54:24.373Z,27.63
2022-10-15T07:56:51.414Z,27.54
2022-10-15T07:59:18.550Z,26.69
2022-10-15T08:01:48.450Z,27.42
2022-10-15T08:04:17.990Z,27.24
2022-10-15T08:06:45.238Z,27.19
2022-10-15T08:09:12.391Z,26.93
2022-10-15T08:11:39.522Z,26.78
2022-10-15T08:14:06.884Z,27.61
2022-10-15T08:16:35.417Z,28.12
2022-10-15T08:19:03.716Z,28.04
2022-10-15T08:21:30.986Z,27.26
2022-10-15T08:23:58.290Z,26.49
2022-10-15T08:26:26.650Z,26.44
2022-10-15T08:28:54.608Z,25.93
2022-10-15T08:31:21.819Z,26.67
2022-10-15T08:33:48.852Z,25.15
2022-10-15T08:36:17.975Z,25.28
2022-10-15T08:38:45.350Z,25.17
2022-10-15T08:41:32.857Z,24.79
2022-10-15T08:44:00.182Z,25.32
2022-10-15T08:46:33.920Z,25.40
2022-10-15T08:49:01.580Z,25.11
2022-10-15T08:51:30.724Z,24.27
2022-10-15T08:53:58.398Z,24.79
2022-10-15T08:56:33.844Z,24.52
2022-10-15T08:59:02.770Z,25.02
2022-10-15T09:01:29.837Z,24.48
2022-10-15T09:04:01.497Z,25.15
2022-10-15T09:06:35.540Z,24.60
2022-10-15T09:09:23.773Z,24.20
2022-10-15T09:11:59.442Z,23.97
2022-10-15T09:14:28.173Z,23.87
2022-10-15T09:16:55.276Z,22.87
2022-10-15T09:19:24.623Z,23.64
2022-10-15T09:21:52.011Z,23.47
2022-10-15T09:24:22.929Z,23.41
2022-10-15T09:26:51.798Z,22.75
2022-10-15T09:29:19.289Z,22.45
2022-10-15T09:31:48.215Z,23.40
2022-10-15T09:34:19.957Z,23.08
2022-10-15T09:36:52.438Z,23.78
2022-10-15T09:39:25.591Z,24.17
2022-10-15T09:41:53.764Z,23.83
2022-10-15T09:44:21.261Z,24.05
2022-10-15T09:46:51.062Z,24.97
2022-10-15T09:49:19.614Z,25.19
2022-10-15T09:52:06.326Z,23.89
2022-10-15T09:54:36.550Z,22.99
2022-10-15T09:57:03.667Z,22.50
2022-10-15T10:02:15.511Z,22.67
2022-10-15T10:04:43.199Z,23.60
2022-10-15T10:07:23.953Z,22.67
2022-10-15T10:09:55.174Z,23.35
2022-10-15T10:12:43.115Z,23.68
2022-10-15T10:15:26.430Z,24.07
2022-10-15T10:17:56.977Z,23.70
2022-10-15T10:20:25.201Z,23.89
2022-10-15T10:22:53.213Z,24.03
2022-10-15T10:25:27.273Z,24.18
2022-10-15T10:27:58.273Z,24.95
2022-10-15T10:30:25.377Z,23.81
2022-10-15T10:32:55.574Z,24.44
2022-10-15T10:35:23.246Z,23.86
2022-10-15T10:37:50.304Z,24.68
2022-10-15T10:40:22.458Z,24.36
2022-10-15T10:42:49.590Z,23.97
2022-10-15T10:45:21.271Z,25.02
2022-10-15T10:47:48.361Z,24.84
2022-10-15T10:50:31.980Z,24.74
2022-10-15T10:53:01.873Z,24.27
2022-10-15T10:55:34.201Z,24.79
2022-10-15T10:58:01.357Z,25.50
2022-10-15T11:00:40.837Z,25.69
2022-10-15T11:03:29.235Z,26.56
2022-10-15T11:06:12.798Z,26.65
2022-10-15T11:08:41.088Z,26.44
2022-10-15T11:11:22.131Z,27.17
2022-10-15T11:14:01.417Z,26.49
2022-10-15T11:16:49.696Z,26.87
2022-10-15T11:19:54.616Z,28.30
2022-10-15T11:22:16.111Z,27.80
2022-10-15T11:25:06.942Z,28.34
2022-10-15T11:27:50.968Z,27.93
2022-10-15T11:30:50.608Z,27.76
2022-10-15T11:33:24.796Z,28.39
2022-10-15T11:35:59.614Z,27.91
2022-10-15T11:38:29.685Z,28.30
2022-10-15T11:40:56.896Z,28.50
2022-10-15T11:44:02.565Z,29.13
2022-10-15T11:46:35.723Z,28.57
2022-10-15T11:49:02.811Z,28.40
2022-10-15T11:51:49.183Z,28.72
2022-10-15T11:54:23.511Z,29.57
2022-10-15T11:56:50.662Z,29.57
2022-10-15T11:59:17.749Z,29.05
2022-10-15T12:01:48.717Z,30.29
2022-10-15T12:04:18.389Z,30.01
2022-10-15T12:06:48.650Z,29.44
2022-10-15T12:09:16.575Z,30.13
2022-10-15T12:12:04.289Z,29.82
2022-10-15T12:14:44.293Z,29.46
2022-10-15T12:17:30.165Z,29.53
2022-10-15T12:19:59.240Z,29.20
2022-10-15T12:22:34.337Z,28.86
2022-10-15T12:25:03.403Z,28.85
2022-10-15T12:27:34.690Z,28.75
2022-10-15T12:30:07.895Z,28.38
2022-10-15T12:32:42.215Z,28.32
2022-10-15T12:35:15.383Z,27.83
2022-10-15T12:37:46.487Z,27.85
2022-10-15T12:40:22.792Z,26.98
2022-10-15T12:42:50.147Z,27.46
2022-10-15T12:45:20.710Z,27.00
2022-10-15T12:47:54.065Z,26.44
2022-10-15T12:50:26.063Z,27.78
2022-10-15T12:52:59.501Z,28.40
2022-10-15T12:55:28.842Z,29.08
2022-10-15T12:58:00.473Z,29.55
2022-10-15T13:00:37.463Z,29.26
2022-10-15T13:03:15.302Z,28.34
2022-10-15T13:05:43.334Z,28.46
2022-10-15T13:08:23.159Z,28.25
2022-10-15T13:10:53.271Z,28.79
2022-10-15T13:13:24.256Z,30.06
2022-10-15T13:15:54.579Z,29.95
2022-10-15T13:18:24.137Z,29.45
2022-10-15T13:20:54.330Z,29.50
2022-10-15T13:23:31.019Z,29.84
2022-10-15T13:26:17.355Z,29.88
2022-10-15T13:28:46.295Z,29.63
2022-10-15T13:31:13.349Z,29.32
2022-10-15T13:33:41.321Z,29.57
2022-10-15T13:36:08.570Z,30.13
2022-10-15T13:38:35.836Z,30.30
2022-10-15T13:41:02.891Z,30.01
2022-10-15T13:43:30.090Z,30.20
2022-10-15T13:45:57.704Z,30.16
2022-10-15T13:48:25.796Z,29.67
2022-10-15T13:51:02.398Z,29.38
2022-10-15T13:53:30.227Z,31.12
2022-10-15T13:55:58.214Z,31.51
2022-10-15T13:58:29.322Z,32.13
2022-10-15T14:00:56.539Z,32.62
2022-10-15T14:03:27.478Z,33.14
2022-10-15T14:05:55.230Z,34.80
2022-10-15T14:08:23.448Z,34.49
2022-10-15T14:10:53.178Z,33.87
2022-10-15T14:13:21.394Z,33.44
2022-10-15T14:15:53.827Z,35.02
2022-10-15T14:18:33.211Z,35.59
2022-10-15T14:21:00.309Z,37.31
2022-10-15T14:23:28.226Z,39.70
2022-10-15T14:26:02.108Z,38.27
2022-10-15T14:28:30.213Z,38.76
2022-10-15T14:30:57.306Z,41.73
2022-10-15T14:33:31.405Z,41.36
2022-10-15T14:36:24.002Z,41.92
2022-10-15T14:38:52.302Z,46.21
2022-10-15T14:41:26.962Z,44.73
2022-10-15T14:44:12.370Z,47.51
2022-10-15T14:46:40.421Z,51.10
2022-10-15T14:49:26.364Z,47.56
2022-10-15T14:51:54.118Z,47.68
2022-10-15T14:54:22.156Z,52.30
2022-10-15T14:56:50.721Z,52.53
2022-10-15T14:59:18.076Z,53.00
2022-10-15T15:01:52.178Z,54.49
2022-10-15T15:04:48.675Z,54.35
2022-10-15T15:07:16.927Z,54.43
2022-10-15T15:09:50.550Z,51.72
2022-10-15T15:12:21.726Z,54.50
2022-10-15T15:14:51.562Z,56.01
2022-10-15T15:17:20.092Z,57.92
2022-10-15T15:19:47.402Z,57.73
2022-10-15T15:22:15.740Z,57.73
2022-10-15T15:24:42.803Z,58.20
2022-10-15T15:27:21.649Z,56.68
2022-10-15T15:29:51.745Z,57.08
2022-10-15T15:32:21.314Z,57.12
2022-10-15T15:34:48.537Z,59.19
2022-10-15T15:37:16.666Z,59.72
2022-10-15T15:39:44.755Z,60.28
2022-10-15T15:42:15.510Z,61.45
2022-10-15T15:44:42.968Z,60.41
2022-10-15T15:47:12.271Z,61.47
2022-10-15T15:49:39.834Z,62.48
2022-10-15T15:52:08.952Z,63.05
2022-10-15T15:54:36.330Z,62.55
2022-10-15T15:57:03.369Z,62.85
2022-10-15T15:59:31.153Z,63.88
2022-10-15T16:01:58.320Z,64.22
2022-10-15T16:04:26.123Z,63.81
2022-10-15T16:06:53.147Z,62.74
2022-10-15T16:09:22.578Z,63.87
2022-10-15T16:11:50.253Z,65.54
2022-10-15T16:14:17.887Z,65.80
2022-10-15T16:16:45.031Z,65.39
2022-10-15T16:19:12.453Z,65.40
2022-10-15T16:21:40.379Z,65.60
2022-10-15T16:24:08.276Z,66.57
2022-10-15T16:26:36.780Z,66.20
2022-10-15T16:29:05.493Z,66.17
2022-10-15T16:31:36.613Z,64.14
2022-10-15T16:34:04.316Z,64.65
2022-10-15T16:36:31.692Z,64.68
2022-10-15T16:38:58.818Z,63.90
2022-10-15T16:41:26.288Z,62.93
2022-10-15T16:43:54.581Z,63.16
2022-10-15T16:46:21.806Z,62.93
2022-10-15T16:48:55.266Z,63.64
2022-10-15T16:51:22.483Z,62.98
2022-10-15T16:53:49.664Z,62.82
2022-10-15T16:56:17.070Z,63.99
2022-10-15T16:58:44.540Z,65.19
2022-10-15T17:01:12.424Z,64.14
2022-10-15T17:03:42.731Z,65.04
2022-10-15T17:06:11.240Z,62.55
2022-10-15T17:08:39.780Z,63.49
2022-10-15T17:11:14.337Z,62.96
2022-10-15T17:13:44.700Z,64.74
2022-10-15T17:16:15.806Z,65.50
2022-10-15T17:18:46.376Z,64.31
2022-10-15T17:21:15.467Z,64.37
2022-10-15T17:23:43.771Z,64.83
2022-10-15T17:26:11.822Z,64.55
2022-10-15T17:28:40.417Z,65.74
2022-10-15T17:31:08.471Z,65.25
2022-10-15T17:33:35.974Z,66.48
2022-10-15T17:36:06.769Z,66.62
2022-10-15T17:38:34.025Z,67.58
2022-10-15T17:41:15.362Z,68.35
2022-10-15T17:43:42.907Z,69.09
2022-10-15T17:46:14.286Z,68.44
2022-10-15T17:48:41.807Z,69.44
2022-10-15T17:51:14.386Z,70.53
2022-10-15T17:53:41.858Z,71.81
2022-10-15T17:56:12.927Z,71.48
2022-10-15T17:58:40.041Z,71.94
2022-10-15T18:01:07.079Z,72.40
2022-10-15T18:03:36.048Z,73.44
2022-10-15T18:06:06.994Z,73.73
2022-10-15T18:08:34.079Z,73.98
2022-10-15T18:11:02.053Z,73.38
2022-10-15T18:13:29.163Z,74.37
2022-10-15T18:15:58.868Z,75.06
2022-10-15T18:18:27.168Z,75.01
2022-10-15T18:20:54.337Z,75.84
2022-10-15T18:23:21.557Z,76.28
2022-10-15T18:25:48.701Z,75.83
2022-10-15T18:28:15.845Z,75.44
2022-10-15T18:30:42.884Z,74.87
2022-10-15T18:33:10.670Z,74.43
2022-10-15T18:35:38.463Z,74.64
2022-10-15T18:38:06.092Z,74.87
2022-10-15T18:40:40.965Z,74.42
2022-10-15T18:43:08.327Z,74.31
2022-10-15T18:45:35.880Z,74.88
2022-10-15T18:48:03.100Z,74.16
2022-10-15T18:50:31.247Z,75.35
2022-10-15T18:52:58.284Z,75.60
2022-10-15T18:55:25.696Z,74.68
2022-10-15T18:57:54.046Z,75.46
2022-10-15T19:00:21.136Z,75.09
2022-10-15T19:02:48.176Z,74.59
2022-10-15T19:05:15.757Z,73.68
2022-10-15T19:07:44.188Z,74.61
2022-10-15T19:10:12.444Z,74.16
2022-10-15T19:12:41.191Z,74.47
2022-10-15T19:15:09.127Z,75.20
2022-10-15T19:17:36.388Z,75.60
2022-10-15T19:20:03.957Z,76.00
2022-10-15T19:22:32.780Z,75.53
2022-10-15T19:24:59.887Z,76.17
2022-10-15T19:27:27.463Z,74.98
2022-10-15T19:29:55.016Z,74.71
2022-10-15T19:32:22.714Z,75.18
2022-10-15T19:34:49.943Z,74.91
2022-10-15T19:37:17.180Z,75.57
2022-10-15T19:39:48.272Z,74.59
2022-10-15T19:42:15.639Z,75.40
2022-10-15T19:44:44.213Z,75.18
2022-10-15T19:47:11.290Z,75.07
2022-10-15T19:49:38.308Z,74.80
2022-10-15T19:52:05.798Z,76.21
2022-10-15T19:54:33.127Z,74.94
2022-10-15T19:57:10.286Z,74.13
2022-10-15T19:59:37.415Z,75.14
2022-10-15T20:02:04.461Z,75.64
2022-10-15T20:04:31.595Z,74.74
2022-10-15T20:06:58.976Z,75.71
2022-10-15T20:09:26.035Z,75.75
2022-10-15T20:11:53.106Z,76.01
2022-10-15T20:14:22.468Z,76.30
2022-10-15T20:16:50.162Z,75.95
2022-10-15T20:19:17.252Z,75.70
2022-10-15T20:21:46.102Z,76.09
2022-10-15T20:24:13.395Z,75.92
2022-10-15T20:26:40.439Z,74.89
2022-10-15T20:29:07.765Z,75.85
2022-10-15T20:31:35.976Z,76.06
2022-10-15T20:34:03.076Z,76.18
2022-10-15T20:36:30.576Z,76.34
2022-10-15T20:38:58.700Z,76.64
2022-10-15T20:41:25.757Z,77.30
2022-10-15T20:43:54.442Z,78.02
2022-10-15T20:46:23.338Z,78.36
2022-10-15T20:48:50.380Z,77.41
2022-10-15T20:51:17.702Z,77.59
2022-10-15T20:53:44.924Z,78.23
2022-10-15T20:56:12.345Z,78.65
2022-10-15T20:58:39.481Z,78.39
2022-10-15T21:01:08.061Z,78.76
2022-10-15T21:03:35.224Z,78.86
2022-10-15T21:06:02.433Z,78.50
2022-10-15T21:08:31.512Z,78.31
2022-10-15T21:11:05.802Z,78.33
2022-10-15T21:13:33.289Z,79.09
2022-10-15T21:16:00.902Z,79.47
2022-10-15T21:18:28.668Z,80.02
2022-10-15T21:21:00.222Z,80.23
2022-10-15T21:23:28.805Z,80.20
2022-10-15T21:25:57.031Z,79.75
2022-10-15T21:28:24.126Z,80.12
2022-10-15T21:30:52.834Z,80.04
2022-10-15T21:33:20.207Z,80.03
2022-10-15T21:35:47.265Z,79.93
2022-10-15T21:38:14.380Z,80.02
2022-10-15T21:40:41.422Z,79.75
2022-10-15T21:43:08.811Z,80.87
2022-10-15T21:45:35.837Z,80.75
2022-10-15T21:48:02.978Z,81.02
2022-10-15T21:50:30.156Z,80.93
2022-10-15T21:52:57.383Z,80.94
2022-10-15T21:55:28.346Z,80.85
2022-10-15T21:57:57.723Z,81.33
2022-10-15T22:00:24.749Z,81.51
2022-10-15T22:02:52.109Z,81.39
2022-10-15T22:05:19.241Z,81.28
2022-10-15T22:07:47.062Z,81.85
2022-10-15T22:10:17.054Z,82.01
2022-10-15T22:12:44.361Z,82.07
2022-10-15T22:15:11.448Z,81.95
2022-10-15T22:17:38.475Z,82.16
2022-10-15T22:20:06.264Z,82.74
2022-10-15T22:22:33.314Z,82.69
2022-10-15T22:25:00.882Z,82.67
2022-10-15T22:27:28.067Z,82.64
2022-10-15T22:29:55.238Z,83.04
2022-10-15T22:32:22.402Z,82.98
2022-10-15T22:34:49.538Z,83.47
2022-10-15T22:37:16.738Z,83.89
2022-10-15T22:39:43.768Z,83.72
2022-10-15T22:42:11.483Z,83.68
2022-10-15T22:44:38.525Z,83.09
2022-10-15T22:47:05.556Z,83.70
2022-10-15T22:49:32.597Z,83.37
2022-10-15T22:51:59.669Z,83.04
2022-10-15T22:54:27.357Z,83.13
2022-10-15T22:56:54.447Z,83.05
2022-10-15T22:59:23.553Z,83.18
2022-10-15T23:01:50.661Z,82.80
2022-10-15T23:04:17.713Z,83.33
2022-10-15T23:06:45.615Z,83.44
2022-10-15T23:09:18.027Z,84.07
2022-10-15T23:11:46.619Z,83.91
2022-10-15T23:14:14.464Z,84.06
2022-10-15T23:16:42.254Z,84.19
2022-10-15T23:19:20.316Z,84.32
2022-10-15T23:21:56.848Z,84.33
2022-10-15T23:24:24.694Z,84.36
2022-10-15T23:26:51.847Z,84.14
2022-10-15T23:29:25.359Z,83.91
2022-10-15T23:31:52.625Z,83.64
2022-10-15T23:34:20.954Z,84.07
2022-10-15T23:36:48.274Z,84.41
2022-10-15T23:39:16.283Z,84.71
2022-10-15T23:41:43.559Z,84.45
2022-10-15T23:44:10.903Z,84.82
2022-10-15T23:46:38.467Z,84.49
2022-10-15T23:49:05.918Z,84.81
2022-10-15T23:51:34.786Z,84.85
2022-10-15T23:54:02.166Z,84.69
2022-10-15T23:56:30.397Z,84.89
2022-10-15T23:58:58.507Z,84.83
